Weather reports worldwide

Advertisment
Wilhelminadorp aws, Netherlands (6323): temperature & dewpoint: 10.10.2019 05:00:00 - 16.10.2019 05:00:00 (CEST)Wilhelminadorp aws, Netherlands (6323): temperature 5cm & temperature -5cm: 10.10.2019 05:00:00 - 16.10.2019 05:00:00 (CEST)Wilhelminadorp aws, Netherlands (6323): temperature -20cm & temperature -100cm: 10.10.2019 05:00:00 - 16.10.2019 05:00:00 (CEST)Wilhelminadorp aws, Netherlands (6323): wind speed & gusts: 10.10.2019 05:00:00 - 16.10.2019 05:00:00 (CEST)Wilhelminadorp aws, Netherlands (6323): wind direction: 10.10.2019 05:00:00 - 16.10.2019 05:00:00 (CEST)Wilhelminadorp aws, Netherlands (6323): reduced air pressure: 10.10.2019 05:00:00 - 16.10.2019 05:00:00 (CEST)Wilhelminadorp aws, Netherlands (6323): precipitation: 10.10.2019 05:00:00 - 16.10.2019 05:00:00 (CEST)
Date & Time tt [°C] td [°C] tt 5cm [°C] tt -5cm [°C] tt -20cm [°C] tt -100cm [°C] ff [km/h] ff [kn] fx [km/h] fx [kn] dd ppp [hPa] rr [mm]
16.10.2019 05:00:00 10,9 10,0 10,2 13,5 14,3 14,5 11 6 22 12 S 1007,9 0,0
16.10.2019 04:00:00 11,1 10,0 10,5 13,7 14,4 14,5 14 8 22 12 SSW 1008,0 0,0
16.10.2019 03:00:00 11,5 10,0 10,8 13,9 14,5 14,5 18 10 25 14 SSW 1008,2 0,0
16.10.2019 02:00:00 12,0 10,3 11,3 14,0 14,6 14,5 14 8 18 10 SSW 1008,1 0,0
16.10.2019 01:00:00 12,2 10,5 11,5 14,2 14,7 14,5 7 4 14 8 S 1008,0 0,0
16.10.2019 00:00:00 11,9 10,3 11,0 14,3 14,8 14,5 7 4 14 8 S 1008,0 0,0
15.10.2019 23:00:00 11,5 10,0 10,5 14,6 14,9 14,5 7 4 14 8 S 1008,1 0,0
15.10.2019 22:00:00 12,7 10,5 11,8 14,8 15,0 14,5 11 6 22 12 SSW 1007,7 0,0
15.10.2019 21:00:00 13,9 11,4 13,4 15,0 15,0 14,5 11 6 14 8 SSW 1007,6 0,0
15.10.2019 20:00:00 13,7 12,2 13,3 15,1 15,1 14,5 7 4 11 6 SW 1006,9 0,0
15.10.2019 19:00:00 13,6 12,5 13,2 15,2 15,1 14,5 11 6 14 8 WSW 1006,4 0,6
15.10.2019 18:00:00 14,1 12,7 14,1 15,3 15,0 14,5 14 8 22 12 W 1005,8 0,0
15.10.2019 17:00:00 15,4 12,6 15,1 15,4 15,0 14,5 11 6 18 10 SSW 1005,9 0,0
15.10.2019 16:00:00 15,5 12,6 15,3 15,4 14,9 14,5 11 6 22 12 SSW 1005,9 0,0
15.10.2019 15:00:00 15,7 12,6 15,6 15,3 14,8 14,5 14 8 25 14 SSW 1005,7 0,0
15.10.2019 14:00:00 15,7 12,6 15,8 15,1 14,8 14,5 14 8 25 14 SSW 1005,6 0,0
15.10.2019 13:00:00 15,8 12,8 - - - - 14 8 25 14 SSW 1006,0 0,0
15.10.2019 12:00:00 15,1 12,6 15,0 14,7 14,7 14,5 18 10 29 16 SSW 1006,1 0,0
15.10.2019 11:00:00 15,0 13,2 15,0 14,6 14,7 14,5 14 8 22 12 SSW 1005,7 0,0
15.10.2019 10:00:00 14,8 13,3 14,8 14,5 14,7 14,5 11 6 22 12 SSW 1005,4 0,0
15.10.2019 09:00:00 14,6 13,2 14,3 14,5 14,8 14,5 11 6 22 12 SSW 1005,0 0,0
15.10.2019 08:00:00 14,5 13,2 14,1 14,6 14,8 14,5 11 6 22 12 SSW 1004,6 0,0
15.10.2019 07:00:00 14,5 13,3 14,1 14,7 14,8 14,5 11 6 22 12 SSW 1004,6 0,0
15.10.2019 06:00:00 15,1 13,4 14,7 14,8 14,9 14,5 14 8 29 16 SSW 1004,5 0,0
15.10.2019 05:00:00 15,3 13,5 14,8 14,8 14,9 14,5 14 8 25 14 SSW 1004,3 0,0
15.10.2019 04:00:00 15,8 13,4 15,1 14,9 14,9 14,5 14 8 25 14 SSW 1004,5 0,0
15.10.2019 03:00:00 16,0 13,3 15,4 14,9 15,0 14,5 14 8 25 14 SSW 1004,3 0,0
15.10.2019 02:00:00 16,4 13,2 15,8 15,0 15,0 14,5 18 10 36 19 SSW 1004,3 0,0
15.10.2019 01:00:00 16,8 14,0 15,9 15,1 15,0 14,5 11 6 18 10 S 1003,8 0,0
15.10.2019 00:00:00 16,2 14,5 15,3 15,2 15,1 14,5 11 6 14 8 SE 1003,4 0,0
14.10.2019 23:00:00 17,5 14,9 15,9 15,3 15,1 14,5 7 4 18 10 S 1004,2 0,0
14.10.2019 22:00:00 18,4 15,3 17,3 15,3 15,1 14,5 11 6 22 12 SSE 1004,6 0,0
14.10.2019 21:00:00 18,4 15,2 16,8 15,4 15,1 14,5 14 8 18 10 SSE 1004,9 0,0
14.10.2019 20:00:00 17,0 15,4 15,7 15,6 15,1 14,5 11 6 18 10 ESE 1004,7 0,0
14.10.2019 19:00:00 17,0 15,5 16,3 15,7 15,0 14,4 7 4 14 8 SE 1005,5 0,0
14.10.2019 18:00:00 18,2 16,0 17,6 15,7 14,9 14,4 11 6 18 10 ESE 1005,3 0,0
14.10.2019 17:00:00 17,9 16,2 17,7 15,6 14,7 14,4 11 6 18 10 E 1005,6 0,0
14.10.2019 16:00:00 17,5 15,4 18,0 15,4 14,6 14,4 14 8 22 12 E 1006,6 0,0
14.10.2019 15:00:00 17,0 14,7 17,6 15,1 14,4 14,4 18 10 29 16 E 1007,5 0,0
14.10.2019 14:00:00 16,4 14,1 16,9 14,7 14,3 14,4 18 10 32 18 ESE 1008,6 0,0
14.10.2019 13:00:00 15,8 13,5 16,4 14,4 14,2 14,4 22 12 36 19 ESE 1009,3 0,0
14.10.2019 12:00:00 14,6 13,3 14,4 14,2 14,2 14,4 18 10 25 14 E 1010,2 0,0
14.10.2019 11:00:00 14,5 13,5 14,7 14,0 14,2 14,4 14 8 22 12 ENE 1011,2 0,0
14.10.2019 10:00:00 13,8 13,2 13,7 13,9 14,2 14,4 7 4 18 10 ENE 1011,6 0,0
14.10.2019 09:00:00 13,2 12,7 12,8 13,9 14,3 14,4 8 4 - - ESE 1012,2 -
14.10.2019 08:00:00 12,2 11,9 11,6 14,0 14,4 14,4 4 2 7 4 E 1012,2 0,0
14.10.2019 07:00:00 12,5 12,1 12,1 14,0 14,4 14,4 4 2 7 4 SSE 1012,9 0,0
14.10.2019 06:00:00 12,0 11,4 11,2 14,1 14,5 14,4 7 4 11 6 SSE 1012,5 0,0
14.10.2019 05:00:00 12,7 12,1 12,3 14,2 14,6 14,4 4 2 7 4 S 1012,4 0,0
14.10.2019 04:00:00 12,6 11,8 12,2 14,3 14,6 14,4 7 4 11 6 S 1012,2 0,0
14.10.2019 03:00:00 13,2 12,2 12,7 14,4 14,7 14,4 7 4 14 8 SW 1013,1 0,0
14.10.2019 02:00:00 13,5 12,3 13,0 14,6 14,8 14,4 11 6 18 10 SW 1012,7 0,0
14.10.2019 01:00:00 14,0 12,5 13,4 14,7 14,9 14,4 14 8 25 14 WSW 1012,1 0,0
14.10.2019 00:00:00 14,3 12,7 13,8 14,9 14,9 14,4 18 10 29 16 SW 1011,7 0,0
13.10.2019 23:00:00 14,8 13,1 14,0 15,1 15,0 14,4 18 10 29 16 SW 1010,8 0,0
13.10.2019 22:00:00 15,3 13,3 14,8 15,3 15,0 14,4 18 10 36 19 SW 1009,6 0,0
13.10.2019 21:00:00 15,5 13,6 15,2 15,4 15,0 14,4 22 12 40 21 SW 1008,6 0,1
13.10.2019 20:00:00 16,0 13,3 15,5 15,6 14,9 14,4 22 12 43 23 WSW 1008,0 0,0
13.10.2019 19:00:00 16,8 15,8 16,5 15,7 14,9 14,4 25 14 50 27 W 1006,7 2,7
13.10.2019 18:00:00 19,4 15,5 18,7 15,7 14,8 14,4 22 12 43 23 SSW 1005,4 0,0
13.10.2019 17:00:00 20,7 15,7 20,0 15,7 14,6 14,4 22 12 36 19 SW 1005,1 0,0
13.10.2019 16:00:00 20,9 16,0 20,6 15,6 14,4 14,4 22 12 43 23 SSW 1005,3 0,0
13.10.2019 15:00:00 20,6 15,5 20,1 15,4 14,2 14,4 29 16 47 25 SSW 1004,9 0,0
13.10.2019 14:00:00 21,7 15,7 21,5 14,9 13,9 14,4 25 14 43 23 S 1004,4 0,0
13.10.2019 13:00:00 21,1 16,3 21,0 14,3 13,8 14,4 25 14 47 25 S 1004,9 0,0
13.10.2019 12:00:00 18,9 16,1 18,4 13,9 13,7 14,4 22 12 32 18 S 1005,5 0,0
13.10.2019 11:00:00 17,5 16,1 17,0 13,6 13,6 14,4 14 8 25 14 S 1005,9 0,4
13.10.2019 10:00:00 16,5 15,5 16,2 13,4 13,6 14,4 18 10 25 14 SSE 1005,9 0,0
13.10.2019 09:00:00 15,9 15,2 15,4 13,3 13,6 14,4 14 8 22 12 S 1006,4 0,0
13.10.2019 08:00:00 14,7 14,4 14,3 13,3 13,6 14,4 11 6 18 10 S 1006,7 0,0
13.10.2019 07:00:00 14,0 13,5 12,4 13,3 13,6 14,4 7 4 14 8 SSE 1006,6 0,0
13.10.2019 06:00:00 15,0 14,1 14,0 13,4 13,6 14,4 11 6 14 8 S 1007,1 0,0
13.10.2019 05:00:00 15,0 14,0 14,5 13,3 13,6 14,4 11 6 14 8 S 1007,2 0,0
13.10.2019 04:00:00 15,1 13,9 14,4 13,3 13,7 14,4 7 4 14 8 S 1007,5 0,0
13.10.2019 03:00:00 13,8 13,5 13,1 13,3 13,7 14,4 7 4 14 8 S 1007,8 0,0
13.10.2019 02:00:00 11,1 10,9 10,0 13,3 13,8 14,4 7 4 7 4 SE 1008,2 0,0
13.10.2019 01:00:00 11,1 10,9 9,9 13,5 13,8 14,4 4 2 11 6 E 1008,6 0,0
13.10.2019 00:00:00 11,7 11,5 11,2 13,6 13,9 14,4 7 4 14 8 ESE 1009,1 0,0
12.10.2019 23:00:00 12,2 11,8 12,2 13,7 13,9 14,4 7 4 14 8 E 1009,4 0,0
12.10.2019 22:00:00 12,3 12,0 12,2 13,7 13,9 14,4 7 4 14 8 ENE 1009,6 0,3
12.10.2019 21:00:00 12,2 11,7 12,1 13,8 14,0 14,4 11 6 22 12 NNE 1009,7 0,0
12.10.2019 20:00:00 12,3 11,7 12,3 13,9 14,0 14,4 11 6 18 10 NE 1009,6 0,1
12.10.2019 19:00:00 12,4 11,7 12,2 13,9 14,0 14,4 11 6 14 8 ENE 1009,1 0,0
12.10.2019 18:00:00 12,5 11,9 12,5 14,0 14,0 14,4 7 4 18 10 NE 1009,5 0,0
12.10.2019 17:00:00 12,5 12,0 12,7 14,0 13,9 14,4 11 6 14 8 ENE 1009,5 0,0
12.10.2019 16:00:00 12,4 11,9 12,5 14,0 13,9 14,4 7 4 14 8 NE 1009,7 0,9
12.10.2019 15:00:00 12,0 11,7 12,1 14,0 13,9 14,4 7 4 14 8 N 1010,4 0,7
12.10.2019 14:00:00 12,2 11,9 12,6 14,0 13,9 14,4 7 4 18 10 N 1010,4 0,7
12.10.2019 13:00:00 12,4 11,8 12,5 13,9 13,8 14,5 14 8 22 12 NNW 1010,1 0,1
12.10.2019 12:00:00 12,6 12,2 12,8 13,8 13,8 14,5 7 4 11 6 NW 1009,6 0,2
12.10.2019 11:00:00 12,8 12,5 13,2 13,7 13,8 14,5 4 2 11 6 WSW 1009,5 0,3
12.10.2019 10:00:00 12,5 12,3 12,8 13,6 13,8 14,5 7 4 11 6 WSW 1009,0 0,3
12.10.2019 09:00:00 12,1 11,9 12,2 13,6 13,8 14,5 7 4 7 4 WSW 1008,3 0,7
12.10.2019 08:00:00 12,0 11,8 12,0 13,7 13,8 14,5 4 2 14 8 WSW 1007,8 0,5
12.10.2019 07:00:00 12,2 11,7 12,2 13,7 13,8 14,5 11 6 14 8 WNW 1007,7 0,3
12.10.2019 06:00:00 12,7 12,2 12,6 13,7 13,8 14,5 7 4 25 14 W 1007,4 0,1
12.10.2019 05:00:00 13,3 12,1 13,2 13,8 13,8 14,5 14 8 40 21 WNW 1007,4 0,0
12.10.2019 04:00:00 15,8 12,4 15,2 13,8 13,8 14,5 22 12 40 21 SW 1006,8 0,0
12.10.2019 03:00:00 16,5 12,5 15,8 13,8 13,8 14,5 25 14 40 21 SW 1007,0 0,0
12.10.2019 02:00:00 16,4 12,6 15,7 13,8 13,8 14,5 22 12 36 19 SW 1007,3 0,0
12.10.2019 01:00:00 16,1 12,5 15,3 13,9 13,8 14,5 22 12 36 19 SSW 1007,3 0,0
12.10.2019 00:00:00 16,4 12,7 15,8 13,9 13,8 14,5 22 12 36 19 SSW 1007,4 0,0
11.10.2019 23:00:00 16,6 12,8 16,1 13,9 13,8 14,5 22 12 43 23 SSW 1007,8 0,0
11.10.2019 22:00:00 16,9 13,0 16,2 13,8 13,8 14,5 29 16 47 25 SW 1008,0 0,0
11.10.2019 21:00:00 16,3 13,0 15,7 13,8 13,7 14,5 25 14 47 25 SSW 1007,6 0,0
11.10.2019 20:00:00 16,2 13,1 15,7 13,8 13,7 14,5 29 16 47 25 SSW 1008,0 0,0
11.10.2019 19:00:00 16,2 12,8 15,6 13,9 13,7 14,5 29 16 47 25 SSW 1007,9 0,0
11.10.2019 18:00:00 15,9 12,6 15,3 13,8 13,6 14,5 29 16 40 21 SSW 1008,0 0,0
11.10.2019 17:00:00 15,5 12,6 15,1 13,8 13,5 14,5 25 14 43 23 SSW 1008,4 0,0
11.10.2019 16:00:00 14,9 13,0 14,7 13,7 13,5 14,5 25 14 43 23 SSW 1008,8 0,3
11.10.2019 15:00:00 14,5 12,8 14,3 13,6 13,4 14,5 25 14 47 25 SSW 1009,3 0,3
11.10.2019 14:00:00 14,5 12,8 14,4 13,4 13,3 14,5 29 16 47 25 SSW 1010,1 0,4
11.10.2019 13:00:00 14,5 12,5 14,3 13,3 13,2 14,5 29 16 47 25 SSW 1010,8 0,1
11.10.2019 12:00:00 14,4 12,2 14,1 13,1 13,2 14,5 32 18 47 25 SSW 1010,7 0,1
11.10.2019 11:00:00 14,1 12,1 14,0 13,0 13,2 14,5 29 16 50 27 SSW 1011,0 0,0
11.10.2019 10:00:00 14,1 11,7 13,9 12,9 13,2 14,5 25 14 47 25 SSW 1011,0 0,0
11.10.2019 09:00:00 13,6 11,5 13,3 12,8 13,2 14,5 25 14 40 21 SSW 1011,0 0,0
11.10.2019 08:00:00 13,6 11,0 13,4 12,8 13,2 14,5 25 14 40 21 SSW 1011,2 0,0
11.10.2019 07:00:00 13,5 10,8 13,0 12,8 13,2 14,5 25 14 40 21 SSW 1011,4 0,0
11.10.2019 06:00:00 13,7 10,6 13,3 12,8 13,2 14,5 25 14 43 23 SSW 1011,8 0,0
11.10.2019 05:00:00 14,2 10,5 13,7 12,8 13,2 14,6 22 12 43 23 SW 1012,0 0,0
11.10.2019 04:00:00 14,4 10,5 14,0 12,8 13,2 14,6 25 14 40 21 SW 1012,3 0,0
11.10.2019 03:00:00 13,7 9,7 13,2 12,8 13,3 14,6 25 14 36 19 SSW 1012,6 0,0
11.10.2019 02:00:00 13,4 9,6 13,0 12,9 13,3 14,6 25 14 40 21 SSW 1012,8 0,0
11.10.2019 01:00:00 13,4 9,4 13,0 12,9 13,3 14,6 25 14 43 23 SSW 1013,1 0,0
11.10.2019 00:00:00 13,7 9,8 13,1 13,0 13,4 14,6 25 14 40 21 SSW 1013,5 0,0
10.10.2019 23:00:00 13,5 10,3 12,7 13,1 13,4 14,6 18 10 36 19 SSW 1013,8 0,0
10.10.2019 22:00:00 13,4 10,1 12,7 13,2 13,5 14,6 22 12 36 19 SW 1014,0 0,0
10.10.2019 21:00:00 13,8 9,8 13,1 13,3 13,5 14,6 22 12 36 19 SW 1014,0 0,0
10.10.2019 20:00:00 14,0 9,8 13,2 13,5 13,5 14,6 22 12 40 21 SW 1014,1 0,0
10.10.2019 19:00:00 14,5 9,6 14,0 13,6 13,5 14,6 25 14 47 25 SW 1014,1 0,0
10.10.2019 18:00:00 14,9 9,9 14,3 13,7 13,4 14,6 29 16 50 27 WSW 1013,8 0,0
10.10.2019 17:00:00 15,3 9,3 15,3 13,7 13,3 14,6 32 18 50 27 WSW 1013,7 0,0
10.10.2019 16:00:00 15,1 10,2 15,4 13,6 13,1 14,6 32 18 54 29 WSW 1013,9 0,0
10.10.2019 15:00:00 15,1 10,2 15,6 13,4 13,0 14,6 36 19 50 27 WSW 1013,6 0,0
10.10.2019 14:00:00 14,1 10,1 13,9 13,1 12,8 14,6 32 18 58 31 W 1013,4 0,0
10.10.2019 13:00:00 14,1 10,0 14,4 12,7 12,7 14,6 29 16 47 25 WSW 1013,1 0,0
10.10.2019 12:00:00 14,2 10,7 13,9 12,3 12,6 14,6 32 18 47 25 WSW 1012,5 0,0
10.10.2019 11:00:00 13,1 10,4 13,2 11,9 12,6 14,6 25 14 36 19 SW 1012,0 0,4
10.10.2019 10:00:00 12,1 10,3 11,4 11,7 12,7 14,6 25 14 32 18 WSW 1011,4 0,3
10.10.2019 09:00:00 10,4 9,1 9,7 11,8 12,7 14,6 22 12 25 14 SW 1010,4 0,0
10.10.2019 08:00:00 9,6 8,4 9,0 11,9 12,8 14,6 14 8 18 10 SW 1009,4 0,0
10.10.2019 07:00:00 10,1 8,7 9,4 12,0 12,9 14,6 14 8 18 10 SSW 1008,5 0,0
10.10.2019 06:00:00 10,3 9,1 9,7 12,2 13,0 14,6 14 8 25 14 SW 1008,0 0,0
10.10.2019 05:00:00 10,4 9,2 10,0 12,2 13,0 14,6 14 8 25 14 SW 1007,2 0,0

tt = temperature
td = dewpoint
tt 5cm = temperature 5cm
tt -5cm = temperature -5cm
tt -20cm = temperature -20cm
tt -100cm = temperature -100cm
ff = wind speed
fx = gusts
dd = wind direction
ppp = reduced air pressure
rr = precipitation

Next stations